aviador You're here:

KHKS Decoded Metar

JACKSON/HAWKINS in MS, USA
Report Time2018-01-18 20:53:00
UTC Time2018-01-18 21:38:55
Flight Rules vfr VFR
Wind310° at 03 kt
W.Decomp.*RWY 29: 2.8 kt HW 1.0 kt RCW
RWY 34: 2.6 kt HW 1.5 kt LCW
W.Rank310° ranks 12
Current wind is below 310° avg. (6.5)
Visibility9999 m
Phenomena:N/A
Clouds:N/A
Expected CloudBase > 6,800 ft AGL from Temp-Dew spread
CeilingNone
Temp06°C (ISA -8)
Dew Point-11°C (29% RH)
AAT1.8°C
QNH1031 hPa
Density Alt-1,214 ft
Elevation354 ft
Report Wrong Elevation
Raw Report
KHKS 182053Z 31003KT 10SM CLR 06/M11 A3046 RMK AO2 SLP312
T00561111 56035=

Extra information for KHKS:More info

Metar Taf Metar & Taf Last 4 Metars F.Rules Stats Wind Profile Meteogram Temp Stats Airport Information Weather charts Add Link Nearby VenuesMetar ALERT Operation Metar Decoded Social comments

AIRNAV info for KHKS